sensor_id;sensor_type;location;lat;lon;timestamp;pressure;altitude;pressure_sealevel;temperature;humidity
46756;BME280;32506;52.826;-1.192;2023-07-20T00:01:18;101066.94;;;14.21;44.73
46756;BME280;32506;52.826;-1.192;2023-07-20T00:03:43;101062.25;;;14.17;44.54
46756;BME280;32506;52.826;-1.192;2023-07-20T00:06:08;101065.00;;;14.10;44.70
46756;BME280;32506;52.826;-1.192;2023-07-20T00:08:34;101057.38;;;14.07;44.60
46756;BME280;32506;52.826;-1.192;2023-07-20T00:10:59;101060.13;;;14.00;44.81
46756;BME280;32506;52.826;-1.192;2023-07-20T00:13:25;101063.50;;;13.96;44.79
46756;BME280;32506;52.826;-1.192;2023-07-20T00:15:51;101064.16;;;13.91;44.84
46756;BME280;32506;52.826;-1.192;2023-07-20T00:18:17;101068.56;;;13.85;44.93
46756;BME280;32506;52.826;-1.192;2023-07-20T00:20:42;101072.75;;;13.81;45.04
46756;BME280;32506;52.826;-1.192;2023-07-20T00:23:07;101062.88;;;13.75;45.00
46756;BME280;32506;52.826;-1.192;2023-07-20T00:25:33;101067.91;;;13.71;45.01
46756;BME280;32506;52.826;-1.192;2023-07-20T00:28:01;101066.91;;;13.66;45.20
46756;BME280;32506;52.826;-1.192;2023-07-20T00:30:27;101064.06;;;13.61;45.16
46756;BME280;32506;52.826;-1.192;2023-07-20T00:32:52;101074.44;;;13.57;45.13
46756;BME280;32506;52.826;-1.192;2023-07-20T00:35:18;101060.25;;;13.50;45.39
46756;BME280;32506;52.826;-1.192;2023-07-20T00:37:43;101064.41;;;13.46;45.53
46756;BME280;32506;52.826;-1.192;2023-07-20T00:40:09;101067.75;;;13.41;45.46
46756;BME280;32506;52.826;-1.192;2023-07-20T00:42:35;101066.72;;;13.35;45.48
46756;BME280;32506;52.826;-1.192;2023-07-20T00:45:00;101060.38;;;13.30;45.40
46756;BME280;32506;52.826;-1.192;2023-07-20T00:47:44;101058.13;;;13.26;45.68
46756;BME280;32506;52.826;-1.192;2023-07-20T00:50:09;101054.69;;;13.19;45.44
46756;BME280;32506;52.826;-1.192;2023-07-20T00:52:37;101056.38;;;13.14;45.50
46756;BME280;32506;52.826;-1.192;2023-07-20T00:55:05;101051.66;;;13.09;45.39
46756;BME280;32506;52.826;-1.192;2023-07-20T00:57:32;101053.34;;;13.03;45.39
46756;BME280;32506;52.826;-1.192;2023-07-20T00:59:58;101044.31;;;12.98;45.56
46756;BME280;32506;52.826;-1.192;2023-07-20T01:02:24;101060.00;;;12.94;45.27
46756;BME280;32506;52.826;-1.192;2023-07-20T01:04:49;101049.94;;;12.89;45.25
46756;BME280;32506;52.826;-1.192;2023-07-20T01:07:27;101055.13;;;12.84;45.52
46756;BME280;32506;52.826;-1.192;2023-07-20T01:10:08;101049.59;;;12.79;45.37
46756;BME280;32506;52.826;-1.192;2023-07-20T01:12:46;101046.72;;;12.74;45.55
46756;BME280;32506;52.826;-1.192;2023-07-20T01:15:12;101044.72;;;12.69;45.54
46756;BME280;32506;52.826;-1.192;2023-07-20T01:17:38;101046.19;;;12.65;45.28
46756;BME280;32506;52.826;-1.192;2023-07-20T01:20:05;101039.78;;;12.59;45.46
46756;BME280;32506;52.826;-1.192;2023-07-20T01:22:43;101044.78;;;12.56;45.58
46756;BME280;32506;52.826;-1.192;2023-07-20T01:30:56;101029.19;;;12.39;45.81
46756;BME280;32506;52.826;-1.192;2023-07-20T01:33:25;101028.19;;;12.34;45.42
46756;BME280;32506;52.826;-1.192;2023-07-20T01:36:01;101027.59;;;12.32;45.36
46756;BME280;32506;52.826;-1.192;2023-07-20T01:38:28;101029.25;;;12.26;45.18
46756;BME280;32506;52.826;-1.192;2023-07-20T01:40:54;101036.06;;;12.22;45.19
46756;BME280;32506;52.826;-1.192;2023-07-20T01:43:20;101037.50;;;12.18;45.40
46756;BME280;32506;52.826;-1.192;2023-07-20T01:45:45;101032.00;;;12.13;45.53
46756;BME280;32506;52.826;-1.192;2023-07-20T01:48:11;101028.06;;;12.08;45.44
46756;BME280;32506;52.826;-1.192;2023-07-20T01:50:36;101037.38;;;12.06;45.76
46756;BME280;32506;52.826;-1.192;2023-07-20T01:53:02;101030.78;;;12.02;45.20
46756;BME280;32506;52.826;-1.192;2023-07-20T01:55:27;101034.91;;;11.98;45.73
46756;BME280;32506;52.826;-1.192;2023-07-20T01:57:55;101037.38;;;11.92;45.54
46756;BME280;32506;52.826;-1.192;2023-07-20T02:00:20;101032.44;;;11.89;45.45
46756;BME280;32506;52.826;-1.192;2023-07-20T02:02:46;101033.88;;;11.85;45.21
46756;BME280;32506;52.826;-1.192;2023-07-20T02:05:12;101032.66;;;11.81;45.03
46756;BME280;32506;52.826;-1.192;2023-07-20T02:07:37;101035.78;;;11.78;45.29
46756;BME280;32506;52.826;-1.192;2023-07-20T02:10:03;101027.31;;;11.74;45.55
46756;BME280;32506;52.826;-1.192;2023-07-20T02:12:29;101026.09;;;11.70;45.15
46756;BME280;32506;52.826;-1.192;2023-07-20T02:14:54;101023.84;;;11.67;45.21
46756;BME280;32506;52.826;-1.192;2023-07-20T02:17:20;101024.25;;;11.64;45.45
46756;BME280;32506;52.826;-1.192;2023-07-20T02:19:45;101024.66;;;11.61;45.54
46756;BME280;32506;52.826;-1.192;2023-07-20T02:22:11;101018.91;;;11.57;45.20
46756;BME280;32506;52.826;-1.192;2023-07-20T02:24:37;101018.50;;;11.54;45.05
46756;BME280;32506;52.826;-1.192;2023-07-20T02:27:03;101029.66;;;11.51;45.31
46756;BME280;32506;52.826;-1.192;2023-07-20T02:29:28;101017.91;;;11.45;45.62
46756;BME280;32506;52.826;-1.192;2023-07-20T02:31:53;101015.66;;;11.42;45.61
46756;BME280;32506;52.826;-1.192;2023-07-20T02:34:19;101016.88;;;11.39;45.32
46756;BME280;32506;52.826;-1.192;2023-07-20T02:36:44;101021.81;;;11.36;45.32
46756;BME280;32506;52.826;-1.192;2023-07-20T02:39:13;101024.91;;;11.33;45.57
46756;BME280;32506;52.826;-1.192;2023-07-20T02:41:39;101023.69;;;11.29;45.47
46756;BME280;32506;52.826;-1.192;2023-07-20T02:44:04;101023.06;;;11.27;45.75
46756;BME280;32506;52.826;-1.192;2023-07-20T02:46:29;101019.78;;;11.24;45.71
46756;BME280;32506;52.826;-1.192;2023-07-20T02:48:55;101015.03;;;11.20;45.70
46756;BME280;32506;52.826;-1.192;2023-07-20T02:51:21;101011.97;;;11.16;45.75
46756;BME280;32506;52.826;-1.192;2023-07-20T02:53:46;101008.66;;;11.14;45.40
46756;BME280;32506;52.826;-1.192;2023-07-20T02:56:12;101010.94;;;11.11;45.64
46756;BME280;32506;52.826;-1.192;2023-07-20T02:58:40;101008.66;;;11.07;45.47
46756;BME280;32506;52.826;-1.192;2023-07-20T03:01:08;101005.59;;;11.04;45.41
46756;BME280;32506;52.826;-1.192;2023-07-20T03:03:36;101010.50;;;11.00;45.82
46756;BME280;32506;52.826;-1.192;2023-07-20T03:06:05;101003.94;;;10.96;45.87
46756;BME280;32506;52.826;-1.192;2023-07-20T03:08:31;101002.69;;;10.92;45.66
46756;BME280;32506;52.826;-1.192;2023-07-20T03:10:56;101008.84;;;10.93;45.52
46756;BME280;32506;52.826;-1.192;2023-07-20T03:13:21;101007.81;;;10.87;45.64
46756;BME280;32506;52.826;-1.192;2023-07-20T03:15:49;101002.91;;;10.84;45.43
46756;BME280;32506;52.826;-1.192;2023-07-20T03:18:14;101005.97;;;10.81;45.79
46756;BME280;32506;52.826;-1.192;2023-07-20T03:20:40;101009.84;;;10.78;45.44
46756;BME280;32506;52.826;-1.192;2023-07-20T03:23:05;101010.28;;;10.75;45.88
46756;BME280;32506;52.826;-1.192;2023-07-20T03:25:31;101012.34;;;10.73;46.36
46756;BME280;32506;52.826;-1.192;2023-07-20T03:27:56;101002.88;;;10.70;46.19
46756;BME280;32506;52.826;-1.192;2023-07-20T03:30:21;101001.44;;;10.68;45.96
46756;BME280;32506;52.826;-1.192;2023-07-20T03:32:48;100999.16;;;10.65;46.05
46756;BME280;32506;52.826;-1.192;2023-07-20T03:35:13;100994.84;;;10.64;45.99
46756;BME280;32506;52.826;-1.192;2023-07-20T03:37:41;101003.25;;;10.61;45.71
46756;BME280;32506;52.826;-1.192;2023-07-20T03:40:07;101001.81;;;10.58;45.53
46756;BME280;32506;52.826;-1.192;2023-07-20T03:42:32;100997.72;;;10.55;45.50
46756;BME280;32506;52.826;-1.192;2023-07-20T03:44:58;100997.88;;;10.54;45.80
46756;BME280;32506;52.826;-1.192;2023-07-20T03:47:23;101002.84;;;10.50;45.79
46756;BME280;32506;52.826;-1.192;2023-07-20T03:49:49;101001.38;;;10.48;45.87
46756;BME280;32506;52.826;-1.192;2023-07-20T03:52:14;101002.63;;;10.45;46.00
46756;BME280;32506;52.826;-1.192;2023-07-20T03:54:40;101007.31;;;10.43;45.91
46756;BME280;32506;52.826;-1.192;2023-07-20T03:57:05;101002.38;;;10.40;46.51
46756;BME280;32506;52.826;-1.192;2023-07-20T03:59:31;101010.41;;;10.40;46.62
46756;BME280;32506;52.826;-1.192;2023-07-20T04:01:56;101004.44;;;10.38;46.83
46756;BME280;32506;52.826;-1.192;2023-07-20T04:04:22;101005.47;;;10.37;46.80
46756;BME280;32506;52.826;-1.192;2023-07-20T04:06:47;101003.81;;;10.36;46.91
46756;BME280;32506;52.826;-1.192;2023-07-20T04:09:12;101011.03;;;10.35;46.45
46756;BME280;32506;52.826;-1.192;2023-07-20T04:11:38;101013.84;;;10.34;46.71
46756;BME280;32506;52.826;-1.192;2023-07-20T04:14:04;101012.22;;;10.33;47.12
46756;BME280;32506;52.826;-1.192;2023-07-20T04:16:29;101014.03;;;10.32;47.02
46756;BME280;32506;52.826;-1.192;2023-07-20T04:18:55;101005.22;;;10.32;46.79
46756;BME280;32506;52.826;-1.192;2023-07-20T04:21:21;101005.41;;;10.30;47.02
46756;BME280;32506;52.826;-1.192;2023-07-20T04:23:47;101005.41;;;10.30;47.25
46756;BME280;32506;52.826;-1.192;2023-07-20T04:26:12;101009.91;;;10.30;46.92
46756;BME280;32506;52.826;-1.192;2023-07-20T04:28:42;101002.94;;;10.29;46.83
46756;BME280;32506;52.826;-1.192;2023-07-20T04:31:12;100998.41;;;10.29;46.80
46756;BME280;32506;52.826;-1.192;2023-07-20T04:33:38;100995.75;;;10.29;46.69
46756;BME280;32506;52.826;-1.192;2023-07-20T04:36:04;100997.41;;;10.30;46.91
46756;BME280;32506;52.826;-1.192;2023-07-20T04:38:30;100996.34;;;10.31;47.23
46756;BME280;32506;52.826;-1.192;2023-07-20T04:40:55;100998.00;;;10.32;47.06
46756;BME280;32506;52.826;-1.192;2023-07-20T04:43:21;100990.84;;;10.33;47.10
46756;BME280;32506;52.826;-1.192;2023-07-20T04:45:47;100987.97;;;10.34;47.24
46756;BME280;32506;52.826;-1.192;2023-07-20T04:48:16;100994.78;;;10.37;47.20
46756;BME280;32506;52.826;-1.192;2023-07-20T04:50:44;100993.75;;;10.38;47.22
46756;BME280;32506;52.826;-1.192;2023-07-20T04:53:13;100999.72;;;10.40;47.20
46756;BME280;32506;52.826;-1.192;2023-07-20T04:55:39;100990.47;;;10.43;47.47
46756;BME280;32506;52.826;-1.192;2023-07-20T04:58:06;100992.94;;;10.44;47.56
46756;BME280;32506;52.826;-1.192;2023-07-20T05:00:34;100993.56;;;10.46;47.86
46756;BME280;32506;52.826;-1.192;2023-07-20T05:03:00;100994.19;;;10.48;47.94
46756;BME280;32506;52.826;-1.192;2023-07-20T05:05:26;100995.84;;;10.49;48.21
46756;BME280;32506;52.826;-1.192;2023-07-20T05:07:51;101001.78;;;10.51;48.35
46756;BME280;32506;52.826;-1.192;2023-07-20T05:10:17;100997.06;;;10.53;48.90
46756;BME280;32506;52.826;-1.192;2023-07-20T05:12:43;100998.53;;;10.56;48.81
46756;BME280;32506;52.826;-1.192;2023-07-20T05:15:09;100999.97;;;10.58;48.77
46756;BME280;32506;52.826;-1.192;2023-07-20T05:17:34;100999.56;;;10.62;49.04
46756;BME280;32506;52.826;-1.192;2023-07-20T05:20:00;101003.47;;;10.66;49.29
46756;BME280;32506;52.826;-1.192;2023-07-20T05:22:25;101007.38;;;10.70;49.47
46756;BME280;32506;52.826;-1.192;2023-07-20T05:24:50;100999.78;;;10.73;49.50
46756;BME280;32506;52.826;-1.192;2023-07-20T05:27:16;100998.56;;;10.76;49.50
46756;BME280;32506;52.826;-1.192;2023-07-20T05:29:45;101000.59;;;10.81;49.91
46756;BME280;32506;52.826;-1.192;2023-07-20T05:32:11;100998.16;;;10.86;49.86
46756;BME280;32506;52.826;-1.192;2023-07-20T05:34:36;100997.56;;;10.90;50.20
46756;BME280;32506;52.826;-1.192;2023-07-20T05:37:02;100991.38;;;10.97;50.05
46756;BME280;32506;52.826;-1.192;2023-07-20T05:39:27;100997.56;;;11.04;50.42
46756;BME280;32506;52.826;-1.192;2023-07-20T05:41:53;100992.22;;;11.11;50.37
46756;BME280;32506;52.826;-1.192;2023-07-20T05:44:18;100993.84;;;11.18;50.62
46756;BME280;32506;52.826;-1.192;2023-07-20T05:46:44;100992.22;;;11.24;50.98
46756;BME280;32506;52.826;-1.192;2023-07-20T05:49:09;100993.00;;;11.31;51.06
46756;BME280;32506;52.826;-1.192;2023-07-20T05:51:35;100996.50;;;11.38;51.88
46756;BME280;32506;52.826;-1.192;2023-07-20T05:54:00;101001.03;;;11.45;52.16
46756;BME280;32506;52.826;-1.192;2023-07-20T05:56:26;101000.81;;;11.53;52.35
46756;BME280;32506;52.826;-1.192;2023-07-20T05:58:51;101006.16;;;11.59;52.54
46756;BME280;32506;52.826;-1.192;2023-07-20T06:01:17;101000.78;;;11.66;52.82
46756;BME280;32506;52.826;-1.192;2023-07-20T06:03:44;100998.72;;;11.75;52.62
46756;BME280;32506;52.826;-1.192;2023-07-20T06:06:09;101006.50;;;11.83;52.40
46756;BME280;32506;52.826;-1.192;2023-07-20T06:08:37;101001.72;;;11.92;52.96
46756;BME280;32506;52.826;-1.192;2023-07-20T06:11:02;100999.06;;;11.99;53.01
46756;BME280;32506;52.826;-1.192;2023-07-20T06:13:28;100997.78;;;12.08;53.34
46756;BME280;32506;52.826;-1.192;2023-07-20T06:15:53;100995.88;;;12.15;53.12
46756;BME280;32506;52.826;-1.192;2023-07-20T06:18:18;100994.63;;;12.24;54.03
46756;BME280;32506;52.826;-1.192;2023-07-20T06:20:50;100997.06;;;12.33;53.81
46756;BME280;32506;52.826;-1.192;2023-07-20T06:23:16;100995.75;;;12.42;54.04
46756;BME280;32506;52.826;-1.192;2023-07-20T06:25:42;101000.91;;;12.50;53.81
46756;BME280;32506;52.826;-1.192;2023-07-20T06:28:07;100999.56;;;12.59;54.37
46756;BME280;32506;52.826;-1.192;2023-07-20T06:30:33;101011.69;;;12.69;54.22
46756;BME280;32506;52.826;-1.192;2023-07-20T06:32:59;100991.03;;;12.76;54.34
46756;BME280;32506;52.826;-1.192;2023-07-20T06:35:25;101003.94;;;12.86;54.43
46756;BME280;32506;52.826;-1.192;2023-07-20T06:37:51;101004.50;;;12.95;55.17
46756;BME280;32506;52.826;-1.192;2023-07-20T06:40:17;101002.38;;;13.03;55.38
46756;BME280;32506;52.826;-1.192;2023-07-20T06:42:43;101005.63;;;13.12;55.42
46756;BME280;32506;52.826;-1.192;2023-07-20T06:45:09;101002.66;;;13.20;54.91
46756;BME280;32506;52.826;-1.192;2023-07-20T06:47:34;101000.28;;;13.31;55.00
46756;BME280;32506;52.826;-1.192;2023-07-20T06:50:00;100997.13;;;13.40;55.65
46756;BME280;32506;52.826;-1.192;2023-07-20T06:52:25;101000.94;;;13.51;55.86
46756;BME280;32506;52.826;-1.192;2023-07-20T06:54:51;100999.63;;;13.61;56.02
46756;BME280;32506;52.826;-1.192;2023-07-20T06:57:16;100999.91;;;13.71;56.08
46756;BME280;32506;52.826;-1.192;2023-07-20T06:59:42;100995.06;;;13.80;56.06
46756;BME280;32506;52.826;-1.192;2023-07-20T07:02:07;100997.22;;;13.89;56.46
46756;BME280;32506;52.826;-1.192;2023-07-20T07:04:33;100999.59;;;13.98;56.43
46756;BME280;32506;52.826;-1.192;2023-07-20T07:06:59;101007.97;;;14.08;56.52
46756;BME280;32506;52.826;-1.192;2023-07-20T07:09:25;101002.28;;;14.16;56.40
46756;BME280;32506;52.826;-1.192;2023-07-20T07:11:50;101002.78;;;14.25;56.42
46756;BME280;32506;52.826;-1.192;2023-07-20T07:14:18;101004.13;;;14.34;56.59
46756;BME280;32506;52.826;-1.192;2023-07-20T07:16:43;100996.78;;;14.41;56.53
46756;BME280;32506;52.826;-1.192;2023-07-20T07:19:09;101004.28;;;14.51;56.17
46756;BME280;32506;52.826;-1.192;2023-07-20T07:21:35;100999.66;;;14.58;56.12
46756;BME280;32506;52.826;-1.192;2023-07-20T07:24:00;101004.50;;;14.68;56.09
46756;BME280;32506;52.826;-1.192;2023-07-20T07:26:26;101008.72;;;14.76;56.27
46756;BME280;32506;52.826;-1.192;2023-07-20T07:28:51;101006.50;;;14.85;56.39
46756;BME280;32506;52.826;-1.192;2023-07-20T07:31:17;101000.00;;;14.92;55.82
46756;BME280;32506;52.826;-1.192;2023-07-20T07:33:42;101005.03;;;15.01;55.83
46756;BME280;32506;52.826;-1.192;2023-07-20T07:36:08;101003.88;;;15.08;55.76
46756;BME280;32506;52.826;-1.192;2023-07-20T07:38:33;101004.34;;;15.17;55.78
46756;BME280;32506;52.826;-1.192;2023-07-20T07:40:59;100998.84;;;15.24;55.63
46756;BME280;32506;52.826;-1.192;2023-07-20T07:43:25;101000.38;;;15.32;55.53
46756;BME280;32506;52.826;-1.192;2023-07-20T07:45:53;101000.00;;;15.40;55.32
46756;BME280;32506;52.826;-1.192;2023-07-20T07:48:19;101000.50;;;15.49;55.04
46756;BME280;32506;52.826;-1.192;2023-07-20T07:50:45;100993.94;;;15.56;54.94
46756;BME280;32506;52.826;-1.192;2023-07-20T07:53:11;100996.25;;;15.65;54.78
46756;BME280;32506;52.826;-1.192;2023-07-20T07:55:36;101000.44;;;15.72;54.64
46756;BME280;32506;52.826;-1.192;2023-07-20T07:58:02;100998.47;;;15.80;54.61
46756;BME280;32506;52.826;-1.192;2023-07-20T08:00:27;100998.94;;;15.88;54.63
46756;BME280;32506;52.826;-1.192;2023-07-20T08:02:53;100998.53;;;15.97;54.59
46756;BME280;32506;52.826;-1.192;2023-07-20T08:05:18;101000.91;;;16.05;54.67
46756;BME280;32506;52.826;-1.192;2023-07-20T08:07:44;100999.22;;;16.16;54.44
46756;BME280;32506;52.826;-1.192;2023-07-20T08:10:11;101006.94;;;16.24;54.53
46756;BME280;32506;52.826;-1.192;2023-07-20T08:12:37;101002.78;;;16.33;54.41
46756;BME280;32506;52.826;-1.192;2023-07-20T08:15:03;101003.19;;;16.42;54.49
46756;BME280;32506;52.826;-1.192;2023-07-20T08:17:29;100995.56;;;16.51;54.27
46756;BME280;32506;52.826;-1.192;2023-07-20T08:19:54;101000.31;;;16.60;54.39
46756;BME280;32506;52.826;-1.192;2023-07-20T08:22:20;100999.91;;;16.69;54.13
46756;BME280;32506;52.826;-1.192;2023-07-20T08:24:46;101006.28;;;16.80;54.21
46756;BME280;32506;52.826;-1.192;2023-07-20T08:27:11;101000.47;;;16.88;54.19
46756;BME280;32506;52.826;-1.192;2023-07-20T08:29:37;101006.34;;;16.97;54.44
46756;BME280;32506;52.826;-1.192;2023-07-20T08:32:03;101001.13;;;17.07;54.18
46756;BME280;32506;52.826;-1.192;2023-07-20T08:34:29;101008.81;;;17.15;53.94
46756;BME280;32506;52.826;-1.192;2023-07-20T08:36:55;101001.94;;;17.24;54.05
46756;BME280;32506;52.826;-1.192;2023-07-20T08:39:21;100996.91;;;17.33;53.84
46756;BME280;32506;52.826;-1.192;2023-07-20T08:41:48;100998.94;;;17.43;53.78
46756;BME280;32506;52.826;-1.192;2023-07-20T08:44:14;100999.91;;;17.54;53.59
46756;BME280;32506;52.826;-1.192;2023-07-20T08:46:40;101000.03;;;17.64;53.71
46756;BME280;32506;52.826;-1.192;2023-07-20T08:49:06;101000.44;;;17.73;53.91
46756;BME280;32506;52.826;-1.192;2023-07-20T08:51:33;101001.13;;;17.85;53.76
46756;BME280;32506;52.826;-1.192;2023-07-20T08:53:59;101007.75;;;17.94;53.50
46756;BME280;32506;52.826;-1.192;2023-07-20T08:56:25;101007.91;;;18.05;53.59
46756;BME280;32506;52.826;-1.192;2023-07-20T08:58:54;101001.53;;;18.16;53.58
46756;BME280;32506;52.826;-1.192;2023-07-20T09:01:21;101005.16;;;18.27;53.39
46756;BME280;32506;52.826;-1.192;2023-07-20T09:03:47;101003.63;;;18.36;53.37
46756;BME280;32506;52.826;-1.192;2023-07-20T09:06:14;101002.66;;;18.48;53.41
46756;BME280;32506;52.826;-1.192;2023-07-20T09:08:40;101001.69;;;18.59;52.94
46756;BME280;32506;52.826;-1.192;2023-07-20T09:11:06;101009.91;;;18.69;53.05
46756;BME280;32506;52.826;-1.192;2023-07-20T09:13:33;101007.28;;;18.79;52.91
46756;BME280;32506;52.826;-1.192;2023-07-20T09:15:59;101005.25;;;18.92;52.65
46756;BME280;32506;52.826;-1.192;2023-07-20T09:20:50;100998.09;;;19.13;52.54
46756;BME280;32506;52.826;-1.192;2023-07-20T09:23:16;101006.31;;;19.23;52.24
46756;BME280;32506;52.826;-1.192;2023-07-20T09:25:42;101000.94;;;19.34;52.22
46756;BME280;32506;52.826;-1.192;2023-07-20T09:28:07;101005.63;;;19.43;52.08
46756;BME280;32506;52.826;-1.192;2023-07-20T09:30:33;101001.06;;;19.54;51.90
46756;BME280;32506;52.826;-1.192;2023-07-20T09:32:59;100990.53;;;19.63;51.68
46756;BME280;32506;52.826;-1.192;2023-07-20T09:35:25;100990.59;;;19.73;51.53
46756;BME280;32506;52.826;-1.192;2023-07-20T09:38:00;100997.97;;;19.83;51.42
46756;BME280;32506;52.826;-1.192;2023-07-20T09:40:28;100994.50;;;19.93;51.17
46756;BME280;32506;52.826;-1.192;2023-07-20T09:42:54;100992.91;;;20.02;51.18
46756;BME280;32506;52.826;-1.192;2023-07-20T09:45:41;100991.59;;;20.15;51.22
46756;BME280;32506;52.826;-1.192;2023-07-20T09:48:08;100990.53;;;20.21;50.76
46756;BME280;32506;52.826;-1.192;2023-07-20T09:50:39;100997.59;;;20.33;50.69
46756;BME280;32506;52.826;-1.192;2023-07-20T09:53:06;101001.97;;;20.44;50.98
46756;BME280;32506;52.826;-1.192;2023-07-20T09:55:32;101000.09;;;20.55;50.61
46756;BME280;32506;52.826;-1.192;2023-07-20T09:58:00;100993.84;;;20.65;50.42
46756;BME280;32506;52.826;-1.192;2023-07-20T10:00:25;100995.78;;;20.74;50.37
46756;BME280;32506;52.826;-1.192;2023-07-20T10:02:52;100991.72;;;20.82;50.19
46756;BME280;32506;52.826;-1.192;2023-07-20T10:05:17;100990.34;;;20.90;49.91
46756;BME280;32506;52.826;-1.192;2023-07-20T10:07:48;100993.31;;;20.99;49.69
46756;BME280;32506;52.826;-1.192;2023-07-20T10:10:15;100991.44;;;21.04;49.58
46756;BME280;32506;52.826;-1.192;2023-07-20T10:12:42;100993.88;;;21.11;49.41
46756;BME280;32506;52.826;-1.192;2023-07-20T10:15:10;100990.06;;;21.17;49.44
46756;BME280;32506;52.826;-1.192;2023-07-20T10:17:45;100983.81;;;21.22;49.39
46756;BME280;32506;52.826;-1.192;2023-07-20T10:20:16;100994.94;;;21.25;49.16
46756;BME280;32506;52.826;-1.192;2023-07-20T10:22:46;100988.69;;;21.30;48.57
46756;BME280;32506;52.826;-1.192;2023-07-20T10:25:12;100978.88;;;21.34;48.60
46756;BME280;32506;52.826;-1.192;2023-07-20T10:27:39;100981.84;;;21.38;48.66
46756;BME280;32506;52.826;-1.192;2023-07-20T10:30:05;100983.75;;;21.42;48.38
46756;BME280;32506;52.826;-1.192;2023-07-20T10:32:31;100982.09;;;21.46;48.41
46756;BME280;32506;52.826;-1.192;2023-07-20T10:34:57;100986.69;;;21.51;48.34
46756;BME280;32506;52.826;-1.192;2023-07-20T10:37:48;100988.06;;;21.59;48.26
46756;BME280;32506;52.826;-1.192;2023-07-20T10:40:28;100985.63;;;21.62;48.01
46756;BME280;32506;52.826;-1.192;2023-07-20T10:43:04;100982.06;;;21.67;47.91
46756;BME280;32506;52.826;-1.192;2023-07-20T10:45:57;100982.59;;;21.74;48.06
46756;BME280;32506;52.826;-1.192;2023-07-20T10:48:24;100980.66;;;21.80;48.18
46756;BME280;32506;52.826;-1.192;2023-07-20T10:51:11;100981.16;;;21.87;47.55
46756;BME280;32506;52.826;-1.192;2023-07-20T10:53:38;100982.22;;;21.91;47.89
46756;BME280;32506;52.826;-1.192;2023-07-20T10:56:12;100985.75;;;21.97;47.99
46756;BME280;32506;52.826;-1.192;2023-07-20T10:58:40;100977.56;;;22.02;47.97
46756;BME280;32506;52.826;-1.192;2023-07-20T11:01:06;100976.16;;;22.10;47.67
46756;BME280;32506;52.826;-1.192;2023-07-20T11:03:33;100978.28;;;22.18;48.09
46756;BME280;32506;52.826;-1.192;2023-07-20T11:05:59;100974.16;;;22.26;47.61
46756;BME280;32506;52.826;-1.192;2023-07-20T11:08:44;100972.22;;;22.37;47.24
46756;BME280;32506;52.826;-1.192;2023-07-20T11:11:32;100968.84;;;22.50;47.18
46756;BME280;32506;52.826;-1.192;2023-07-20T11:14:00;100974.22;;;22.60;47.31
46756;BME280;32506;52.826;-1.192;2023-07-20T11:19:05;100968.81;;;22.90;46.91
46756;BME280;32506;52.826;-1.192;2023-07-20T11:21:38;100964.53;;;23.08;47.20
46756;BME280;32506;52.826;-1.192;2023-07-20T11:24:05;100960.06;;;23.22;46.96
46756;BME280;32506;52.826;-1.192;2023-07-20T11:26:39;100955.47;;;23.42;47.01
46756;BME280;32506;52.826;-1.192;2023-07-20T11:29:05;100959.97;;;23.57;46.71
46756;BME280;32506;52.826;-1.192;2023-07-20T11:31:30;100960.00;;;23.76;46.80
46756;BME280;32506;52.826;-1.192;2023-07-20T11:34:00;100956.22;;;23.96;46.62
46756;BME280;32506;52.826;-1.192;2023-07-20T11:36:25;100948.03;;;24.15;46.87
46756;BME280;32506;52.826;-1.192;2023-07-20T11:38:51;100947.19;;;24.34;47.02
46756;BME280;32506;52.826;-1.192;2023-07-20T11:41:16;100952.63;;;24.53;46.66
46756;BME280;32506;52.826;-1.192;2023-07-20T11:43:42;100948.56;;;24.69;46.68
46756;BME280;32506;52.826;-1.192;2023-07-20T11:46:08;100935.44;;;24.85;46.22
46756;BME280;32506;52.826;-1.192;2023-07-20T11:48:34;100940.91;;;24.99;46.17
46756;BME280;32506;52.826;-1.192;2023-07-20T11:50:59;100934.97;;;25.11;46.20
46756;BME280;32506;52.826;-1.192;2023-07-20T11:53:25;100930.94;;;25.22;46.00
46756;BME280;32506;52.826;-1.192;2023-07-20T11:55:52;100924.44;;;25.32;45.73
46756;BME280;32506;52.826;-1.192;2023-07-20T11:58:17;100927.00;;;25.42;45.50
46756;BME280;32506;52.826;-1.192;2023-07-20T12:00:44;100924.88;;;25.53;45.46
46756;BME280;32506;52.826;-1.192;2023-07-20T12:03:12;100925.16;;;25.66;45.24
46756;BME280;32506;52.826;-1.192;2023-07-20T12:05:40;100920.47;;;25.80;45.10
46756;BME280;32506;52.826;-1.192;2023-07-20T12:08:07;100923.97;;;25.94;45.07
46756;BME280;32506;52.826;-1.192;2023-07-20T12:10:32;100919.59;;;26.07;44.56
46756;BME280;32506;52.826;-1.192;2023-07-20T12:13:02;100927.75;;;26.21;44.68
46756;BME280;32506;52.826;-1.192;2023-07-20T12:15:31;100914.94;;;26.30;44.61
46756;BME280;32506;52.826;-1.192;2023-07-20T12:17:58;100909.72;;;26.43;43.92
46756;BME280;32506;52.826;-1.192;2023-07-20T12:23:00;100920.22;;;26.72;43.22
46756;BME280;32506;52.826;-1.192;2023-07-20T12:25:39;100911.28;;;26.89;42.85
46756;BME280;32506;52.826;-1.192;2023-07-20T12:28:08;100908.44;;;27.03;42.70
46756;BME280;32506;52.826;-1.192;2023-07-20T12:30:33;100908.34;;;27.17;42.95
46756;BME280;32506;52.826;-1.192;2023-07-20T12:32:59;100914.03;;;27.29;42.71
46756;BME280;32506;52.826;-1.192;2023-07-20T12:35:24;100912.63;;;27.41;42.39
46756;BME280;32506;52.826;-1.192;2023-07-20T12:37:50;100896.19;;;27.50;41.89
46756;BME280;32506;52.826;-1.192;2023-07-20T12:40:17;100894.59;;;27.57;41.65
46756;BME280;32506;52.826;-1.192;2023-07-20T12:42:42;100896.22;;;27.67;41.15
46756;BME280;32506;52.826;-1.192;2023-07-20T12:45:08;100903.81;;;27.79;41.04
46756;BME280;32506;52.826;-1.192;2023-07-20T12:47:34;100898.47;;;27.91;40.94
46756;BME280;32506;52.826;-1.192;2023-07-20T12:49:59;100893.66;;;28.06;40.87
46756;BME280;32506;52.826;-1.192;2023-07-20T12:52:28;100888.81;;;28.20;40.31